Pagrindinis puslapis
METAR-TAF:

METAR-TAF

Oro uostai :

Tarava, Kiribatis

platuma: 01-21N, ilguma: 172-55E, Aukštis: 2 m

Dabartinis oras

Ataskaita buvo paskelbta 37 minutes, ne 05:00 UTC
Vėjas 5 kt iš Vakarų/Pietvakarių
Temperatūra 31°C
Drėgmė 66%
Slėgis 1008 hPa
Matomumas 10 km arba daugiau
Mažai debesys ne aukštis 2000 ft

METAR: NGTA 180500Z 24005KT 9999 FEW020 31/24 Q1008

Laikas: 19:37 (05:37 UTC)

Prognozė

Ataskaita buvo paskelbta 6 valandos ir 30 minutes, ne 23:07 UTC
Prognozė galioja nuo 18 metu 00 UTC su 18 metu 24 UTC
Vėjas 5 kt iš Pietvakarių
Matomumas 10 km arba daugiau
Išsisklaidę debesys ne aukštis 2000 ft
Tikimybė 30% :
Laikinai
nuo 18 metu 12 UTC su 18 metu 18 UTC
Matomumas: 5000 m
Su prošvaistėmis ne aukštis 1500 ft
lietus

TAF: NGTA 172307Z 1800/1824 22005KT 9999 SCT020 PROB30 TEMPO 1812/1818 5000 SHRA BKN015

Orai ataskaitas ir orų prognozės (METAR, TAF).

turimą stotys yra geltonos ir raudonos taškus žemėlapyje.

Perkelti pele per norėdami pamatyti stoties vardą.

Tada spustelėkite, norėdami matyti oro stebėjimo ir prognozės.

Norėdami pakeisti žemėlapį: spustelėkite ant žalios mygtukų su juodo kryžiaus žemyn,; žalią mygtuką su brūkšneliu, jei norite nutolinti; arba žalių rodyklių gretimoms žemėlapius.


METAR-TAF: